Terminal Aerodrome Forecast
Issued by NWS

Home | Current Version | Previous Version | Text Only | Print | Product List | Glossary Off
Versions: 1 2 3 4 5 6 7 8 9 10 11 12 13 14

889
FTUS42 KMHX 091203 CCA
TAFOAJ
TAF COR
KOAJ 091203Z 0912/1012 21004KT 3SM BR BKN060 BKN070
      TEMPO 0912/0913 BKN004
     FM091300 24012G21KT P6SM BKN050
     FM100000 27007KT P6SM SCT050
      AMD LTD TO CLD VIS AND WIND=

USA.gov is the U.S. government's official web portal to all federal, state and local government web resources and services.